Terminal Aerodrome Forecast
Issued by NWS Jackson, MS

Home | Current Version | Previous Version | Text Only | Print | Product List | Glossary On
Versions: 1 2 3 4 5 6 7 8 9 10 11 12 13 14 15
486
FTUS44 KJAN 192354 RRA
TAFGWO
TAF
KGWO 192354Z 2000/2024 VRB06KT 6SM -RA BR BKN050 OVC090
     FM200400 20005KT 4SM BR BKN009 OVC090
     FM200700 20006KT 1SM BR BKN003 BKN025
     FM201200 19006KT 5SM BR BKN008 BKN250
     FM201600 20010KT P6SM BKN015 BKN250
     FM201800 20011KT P6SM BKN250=

USA.gov is the U.S. government's official web portal to all federal, state and local government web resources and services.